Time;durP1;ratioP1;P1;durP2;ratioP2;P2;SDS_P1;SDS_P2;PMS_P1;PMS_P2;Temp;Humidity;BMP_temperature;BMP_pressure;BME280_temperature;BME280_humidity;BME280_pressure;Samples;Min_cycle;Max_cycle;Signal;HPM_P1;HPM_P2
2022/02/02 00:01:14;;;;;;;0.50;0.33;;;;;;;2.41;74.13;96612.84;6276078;28;20227;-73
2022/02/02 00:04:22;;;;;;;0.37;0.37;;;;;;;2.43;75.01;96617.00;6276152;28;20263;-72
2022/02/02 00:17:01;;;;;;;0.20;0.20;;;;;;;2.44;74.35;96602.22;6275094;28;20226;-73
2022/02/02 00:20:32;;;;;;;0.67;0.40;;;;;;;2.47;74.86;96596.81;6275335;28;20228;-73
2022/02/02 00:23:40;;;;;;;0.30;0.27;;;;;;;2.45;74.50;96585.66;6275789;28;20227;-73
2022/02/02 00:26:44;;;;;;;0.20;0.20;;;;;;;2.42;74.35;96598.88;6257293;28;20540;-72
2022/02/02 00:29:52;;;;;;;0.73;0.40;;;;;;;2.36;75.12;96588.88;6275123;28;20230;-73
2022/02/02 00:36:05;;;;;;;0.40;0.40;;;;;;;2.33;75.29;96610.72;6274927;28;20246;-73
2022/02/02 00:39:07;;;;;;;0.37;0.37;;;;;;;2.39;74.66;96599.09;6273759;28;20235;-73
2022/02/02 00:42:09;;;;;;;1.03;0.27;;;;;;;2.41;74.86;96602.41;6274723;28;20222;-73
2022/02/02 00:45:12;;;;;;;0.70;0.60;;;;;;;2.41;75.27;96597.22;6275822;28;20231;-74
2022/02/02 00:48:16;;;;;;;0.70;0.70;;;;;;;2.41;75.06;96586.78;6278919;28;20218;-73
2022/02/02 00:51:23;;;;;;;0.60;0.50;;;;;;;2.49;74.60;96603.63;6277041;28;20276;-73
2022/02/02 00:54:28;;;;;;;1.47;0.50;;;;;;;2.53;75.15;96601.63;6261584;28;20360;-73
2022/02/02 00:57:30;;;;;;;0.73;0.60;;;;;;;2.54;75.17;96637.97;6278737;28;20652;-73
2022/02/02 01:00:33;;;;;;;0.77;0.60;;;;;;;2.57;75.39;96618.72;6261852;28;20230;-73
2022/02/02 01:03:35;;;;;;;0.50;0.50;;;;;;;2.57;75.48;96614.34;6279397;28;20596;-74
2022/02/02 01:06:47;;;;;;;0.50;0.50;;;;;;;2.58;75.78;96617.78;6277973;28;20587;-73
2022/02/02 01:10:12;;;;;;;2.20;0.70;;;;;;;2.63;75.72;96615.72;6279127;28;20292;-73
2022/02/02 01:20:16;;;;;;;0.67;0.67;;;;;;;2.64;75.64;96600.91;6225958;28;20240;-73
2022/02/02 01:29:42;;;;;;;0.70;0.60;;;;;;;2.63;75.99;96594.03;6278789;28;20246;-73
2022/02/02 01:32:44;;;;;;;0.77;0.60;;;;;;;2.63;76.60;96591.44;6278095;28;20678;-74
2022/02/02 01:35:47;;;;;;;0.53;0.53;;;;;;;2.65;76.00;96585.19;6278029;28;20241;-73
2022/02/02 01:38:51;;;;;;;1.13;0.60;;;;;;;2.73;75.65;96582.06;6278473;28;20617;-73
2022/02/02 01:41:55;;;;;;;1.43;0.60;;;;;;;2.77;75.49;96584.38;6278073;28;20234;-73
2022/02/02 01:45:11;;;;;;;0.70;0.70;;;;;;;2.78;75.07;96577.41;6277860;28;20518;-73
2022/02/02 02:00:55;;;;;;;0.53;0.53;;;;;;;2.84;75.35;96562.19;6277479;28;20632;-73
2022/02/02 02:03:58;;;;;;;1.47;0.67;;;;;;;2.85;75.33;96573.44;6277632;28;20647;-73
2022/02/02 02:07:01;;;;;;;1.13;0.37;;;;;;;2.87;75.57;96574.19;6277086;28;20655;-73
2022/02/02 02:10:04;;;;;;;2.97;0.53;;;;;;;2.90;75.36;96561.75;6277744;28;20237;-73
2022/02/02 02:14:08;;;;;;;0.60;0.60;;;;;;;2.94;75.72;96563.22;6276855;28;20642;-73
2022/02/02 02:16:28;;;;;;;1.73;0.57;;;;;;;2.90;75.81;96566.97;6267212;28;20595;-73
2022/02/02 02:19:30;;;;;;;0.40;0.40;;;;;;;2.82;76.80;96561.44;6276449;28;20598;-73
2022/02/02 02:22:37;;;;;;;1.60;0.53;;;;;;;2.70;78.01;96564.03;6277138;28;20681;-73
2022/02/02 02:25:41;;;;;;;0.57;0.57;;;;;;;2.58;79.54;96555.28;6276643;28;20230;-73
2022/02/02 02:28:57;;;;;;;0.40;0.40;;;;;;;2.48;80.10;96544.66;6261580;28;20616;-73
2022/02/02 02:32:35;;;;;;;1.33;0.50;;;;;;;2.44;80.82;96557.97;6276897;28;20231;-73
2022/02/02 02:55:56;;;;;;;0.60;0.60;;;;;;;2.48;80.35;96568.09;6277042;28;20238;-73
2022/02/02 03:55:44;;;;;;;1.53;0.80;;;;;;;3.07;77.42;96593.69;6275586;28;20242;-74
2022/02/02 04:05:28;;;;;;;0.80;0.80;;;;;;;3.08;77.46;96619.66;6276876;28;20231;-73
2022/02/02 04:08:33;;;;;;;1.40;1.20;;;;;;;3.11;77.63;96609.00;6258961;28;20236;-73
2022/02/02 04:11:46;;;;;;;1.33;0.80;;;;;;;3.08;77.83;96606.63;6256548;28;20507;-73
2022/02/02 04:55:01;;;;;;;0.93;0.80;;;;;;;2.55;83.87;96590.19;6227358;28;20265;-73
2022/02/02 04:58:19;;;;;;;0.90;0.73;;;;;;;2.54;83.82;96585.06;6261744;28;20257;-73
2022/02/02 05:21:08;;;;;;;0.63;0.60;;;;;;;2.50;83.88;96615.66;6278422;28;20227;-73
2022/02/02 05:44:28;;;;;;;0.93;0.53;;;;;;;2.30;84.61;96630.91;6278288;28;20238;-73
2022/02/02 05:54:06;;;;;;;1.23;1.03;;;;;;;2.32;84.77;96652.47;6277523;28;20214;-73
2022/02/02 05:57:13;;;;;;;1.53;1.37;;;;;;;2.39;84.42;96656.38;6277781;28;20235;-73
2022/02/02 06:00:16;;;;;;;1.50;1.40;;;;;;;2.42;84.78;96654.41;6278289;28;20348;-74
2022/02/02 06:03:43;;;;;;;2.03;1.50;;;;;;;2.43;85.02;96663.88;6277749;28;20244;-73
2022/02/02 06:06:47;;;;;;;3.00;1.50;;;;;;;2.47;85.21;96662.75;6277121;28;20226;-73
2022/02/02 06:09:51;;;;;;;2.00;1.70;;;;;;;2.51;84.96;96652.97;6277324;28;20687;-73
2022/02/02 06:12:54;;;;;;;1.50;1.40;;;;;;;2.50;84.85;96654.72;6268841;28;20583;-73
2022/02/02 06:15:58;;;;;;;3.67;1.70;;;;;;;2.52;85.12;96668.50;6273563;28;20643;-73
2022/02/02 06:19:01;;;;;;;2.33;1.50;;;;;;;2.52;84.98;96657.25;6277581;28;20357;-73
2022/02/02 06:22:31;;;;;;;4.30;2.07;;;;;;;2.58;84.96;96654.25;6283194;28;20230;-74
2022/02/02 06:25:37;;;;;;;2.50;1.47;;;;;;;2.63;84.85;96667.81;6277311;28;20226;-74
2022/02/02 06:28:42;;;;;;;3.47;1.40;;;;;;;2.63;84.83;96675.63;6277866;28;20483;-74
2022/02/02 06:31:45;;;;;;;1.80;1.67;;;;;;;2.68;84.35;96686.59;6276903;28;20268;-73
2022/02/02 06:34:52;;;;;;;2.77;1.20;;;;;;;2.65;84.23;96691.16;6258606;28;20739;-73
2022/02/02 06:37:54;;;;;;;3.60;1.70;;;;;;;2.64;84.64;96705.09;6274709;28;20558;-73
2022/02/02 06:40:58;;;;;;;4.00;1.50;;;;;;;2.68;84.32;96702.22;6258976;28;20245;-74
2022/02/02 06:44:04;;;;;;;3.97;1.70;;;;;;;2.72;84.19;96718.47;6277614;28;20222;-74
2022/02/02 06:47:08;;;;;;;3.20;1.37;;;;;;;2.84;83.41;96705.47;6258424;28;20322;-73
2022/02/02 06:50:20;;;;;;;2.60;1.20;;;;;;;2.88;83.21;96708.75;6258770;28;20238;-72
2022/02/02 06:53:35;;;;;;;2.80;1.50;;;;;;;2.91;83.16;96724.97;6274849;28;20255;-73
2022/02/02 06:57:09;;;;;;;3.03;1.30;;;;;;;3.00;82.47;96730.53;6275665;28;20698;-73
2022/02/02 07:00:28;;;;;;;2.23;1.33;;;;;;;3.01;82.82;96750.44;6241023;28;20305;-73
2022/02/02 07:04:04;;;;;;;2.67;1.37;;;;;;;2.99;82.67;96755.78;6276689;28;20239;-73
2022/02/02 07:07:18;;;;;;;3.97;1.37;;;;;;;3.01;82.76;96760.88;6275401;28;20280;-73
2022/02/02 07:10:37;;;;;;;1.53;1.13;;;;;;;3.02;81.43;96766.00;6257480;28;20230;-73
2022/02/02 07:13:54;;;;;;;3.33;1.63;;;;;;;3.06;81.44;96777.91;6276100;28;20256;-73
2022/02/02 07:17:19;;;;;;;3.37;1.10;;;;;;;3.03;82.02;96778.09;6257831;28;20239;-73
2022/02/02 07:20:33;;;;;;;1.47;1.10;;;;;;;2.96;82.15;96782.03;6276070;28;20242;-73
2022/02/02 07:33:16;;;;;;;3.00;1.00;;;;;;;3.00;81.51;96787.88;6275416;28;20243;-74
2022/02/02 07:36:31;;;;;;;1.77;0.90;;;;;;;3.01;81.05;96781.72;6275533;28;20605;-73
2022/02/02 07:39:35;;;;;;;3.23;0.80;;;;;;;3.00;81.18;96806.09;6257160;28;20239;-73
2022/02/02 07:42:43;;;;;;;3.40;0.93;;;;;;;2.94;82.04;96807.34;6275139;28;20602;-74
2022/02/02 07:45:51;;;;;;;1.67;0.80;;;;;;;2.87;82.10;96796.50;6257543;28;20223;-74
2022/02/02 07:48:53;;;;;;;2.67;0.87;;;;;;;2.83;82.22;96787.19;6276121;28;20578;-73
2022/02/02 07:51:57;;;;;;;1.37;0.70;;;;;;;2.77;82.59;96789.34;6274893;28;20699;-73
2022/02/02 07:55:04;;;;;;;3.33;1.17;;;;;;;2.70;82.99;96778.47;6275276;28;20606;-74
2022/02/02 07:58:07;;;;;;;1.33;0.93;;;;;;;2.63;83.58;96803.25;6281330;28;20807;-74
2022/02/02 08:01:10;;;;;;;2.33;1.10;;;;;;;2.64;83.27;96807.50;6263001;28;20232;-74
2022/02/02 08:04:14;;;;;;;2.00;1.17;;;;;;;2.67;83.08;96806.50;6280641;28;20315;-74
2022/02/02 08:07:23;;;;;;;2.47;0.83;;;;;;;2.68;83.20;96796.00;6262984;28;20235;-74
2022/02/02 08:10:27;;;;;;;1.80;0.97;;;;;;;2.65;82.89;96811.81;6262181;28;20244;-74
2022/02/02 08:13:45;;;;;;;1.47;0.80;;;;;;;2.65;83.31;96788.34;6270603;28;20575;-73
2022/02/02 08:16:48;;;;;;;1.87;0.70;;;;;;;2.60;83.71;96796.44;6262097;28;20239;-74
2022/02/02 08:19:52;;;;;;;1.50;0.60;;;;;;;2.60;83.67;96804.25;6246932;28;20327;-73
2022/02/02 08:22:54;;;;;;;2.37;0.80;;;;;;;2.60;83.46;96798.22;6276129;28;20233;-73
2022/02/02 08:25:58;;;;;;;0.77;0.57;;;;;;;2.58;83.84;96805.31;6278370;28;20246;-73
2022/02/02 08:29:01;;;;;;;0.70;0.70;;;;;;;2.56;83.70;96818.41;6282416;28;20598;-73
2022/02/02 08:32:04;;;;;;;0.67;0.60;;;;;;;2.53;83.93;96812.56;6279665;28;20231;-73
2022/02/02 08:35:06;;;;;;;0.60;0.60;;;;;;;2.47;84.23;96834.63;6259991;28;20239;-73
2022/02/02 08:38:16;;;;;;;2.40;1.03;;;;;;;2.51;84.76;96824.81;6279564;28;20238;-73
2022/02/02 08:41:57;;;;;;;4.80;1.17;;;;;;;2.56;84.55;96828.84;6226425;28;20224;-70
2022/02/02 08:45:12;;;;;;;3.90;1.30;;;;;;;2.62;84.45;96840.63;6226228;28;20227;-69
2022/02/02 08:48:23;;;;;;;4.23;1.30;;;;;;;2.72;84.55;96841.72;6227244;28;20694;-72
2022/02/02 08:51:30;;;;;;;2.33;1.00;;;;;;;2.79;84.31;96831.78;6226258;28;20220;-69
2022/02/02 08:54:45;;;;;;;3.10;0.90;;;;;;;2.84;84.94;96838.38;6209973;28;20244;-69
2022/02/02 08:58:18;;;;;;;6.90;1.43;;;;;;;2.92;83.43;96832.66;6210708;28;20238;-73
2022/02/02 09:07:43;;;;;;;3.13;1.10;;;;;;;3.45;84.06;96839.66;6234169;28;20224;-74
2022/02/02 09:22:15;;;;;;;1.90;0.90;;;;;;;3.78;78.58;96849.66;6277374;28;20700;-73
2022/02/02 09:24:49;;;;;;;3.27;0.90;;;;;;;3.74;77.32;96847.31;6258045;28;20239;-74
2022/02/02 09:34:32;;;;;;;3.33;1.10;;;;;;;3.82;74.71;96885.03;6278944;28;20229;-73
2022/02/02 09:37:35;;;;;;;1.97;0.80;;;;;;;3.91;74.07;96876.56;6278307;28;20233;-73
2022/02/02 09:43:48;;;;;;;3.90;1.03;;;;;;;3.95;72.61;96888.50;6259003;28;20696;-73
2022/02/02 09:46:57;;;;;;;1.83;0.90;;;;;;;4.11;72.14;96895.28;6278743;28;20236;-73
2022/02/02 09:50:18;;;;;;;1.90;0.80;;;;;;;4.16;71.38;96908.88;6260443;28;20746;-74
2022/02/02 09:53:33;;;;;;;3.77;1.33;;;;;;;4.25;70.67;96903.88;6277054;28;20236;-73
2022/02/02 10:00:40;;;;;;;4.50;1.00;;;;;;;4.70;71.66;96891.22;6277618;28;20235;-74
2022/02/02 10:06:57;;;;;;;2.10;0.90;;;;;;;5.54;70.93;96880.81;6277384;28;20713;-74
2022/02/02 10:10:51;;;;;;;2.43;1.07;;;;;;;5.79;67.86;96872.03;6277847;28;20283;-74
2022/02/02 10:14:13;;;;;;;3.33;0.93;;;;;;;6.09;67.97;96889.88;6258874;28;20242;-73
2022/02/02 10:17:14;;;;;;;4.87;0.83;;;;;;;6.08;65.71;96898.69;6276771;28;20577;-74
2022/02/02 10:20:22;;;;;;;2.17;1.00;;;;;;;6.17;67.10;96884.91;6276646;28;20226;-73
2022/02/02 10:23:27;;;;;;;3.23;0.97;;;;;;;6.09;65.65;96876.78;6276819;28;20261;-74
2022/02/02 10:26:29;;;;;;;1.97;0.77;;;;;;;5.89;66.47;96876.47;6277370;28;20236;-73
2022/02/02 10:29:38;;;;;;;2.73;1.10;;;;;;;5.82;64.99;96874.41;6259503;28;20729;-73
2022/02/02 10:32:51;;;;;;;5.10;0.80;;;;;;;5.66;65.77;96872.09;6276567;28;20242;-74
2022/02/02 10:35:59;;;;;;;2.90;0.80;;;;;;;5.45;65.86;96878.88;6276172;28;20230;-73
2022/02/02 10:39:10;;;;;;;3.50;1.07;;;;;;;5.07;68.54;96897.34;6276072;28;20301;-73
2022/02/02 10:42:33;;;;;;;5.40;1.50;;;;;;;4.60;70.26;96891.00;6263189;28;20705;-73
2022/02/02 10:45:36;;;;;;;3.93;0.80;;;;;;;4.23;72.63;96890.09;6276307;28;20225;-73
2022/02/02 10:49:05;;;;;;;3.50;1.13;;;;;;;4.02;74.48;96925.47;6276759;28;20755;-73
2022/02/02 10:52:22;;;;;;;3.57;1.30;;;;;;;3.68;75.20;96912.03;6258065;28;20234;-74
2022/02/02 11:06:35;;;;;;;5.43;0.90;;;;;;;3.24;77.99;96912.28;6276128;28;20241;-74
2022/02/02 11:08:33;;;;;;;2.53;0.83;;;;;;;3.45;77.97;96886.59;6258165;28;20238;-74
2022/02/02 11:11:43;;;;;;;3.53;1.07;;;;;;;3.51;79.15;96891.41;6274892;28;20604;-74
2022/02/02 11:15:01;;;;;;;3.80;0.90;;;;;;;3.44;79.89;96929.25;6257925;28;20232;-75
2022/02/02 11:18:10;;;;;;;2.83;1.00;;;;;;;3.50;79.66;96904.53;6257641;28;20259;-75
2022/02/02 11:21:21;;;;;;;2.90;1.00;;;;;;;3.58;80.08;96897.91;6276005;28;20228;-74
2022/02/02 11:24:24;;;;;;;6.47;1.03;;;;;;;3.59;79.26;96903.97;6258740;28;20313;-75
2022/02/02 11:27:42;;;;;;;2.97;1.03;;;;;;;3.71;78.79;96897.94;6257375;28;20228;-74
2022/02/02 11:30:44;;;;;;;2.53;1.10;;;;;;;3.72;78.97;96883.94;6275723;28;20236;-75
2022/02/02 11:33:56;;;;;;;4.43;1.40;;;;;;;3.70;78.60;96889.25;6257467;28;20229;-75
2022/02/02 11:37:01;;;;;;;1.97;1.23;;;;;;;3.67;79.38;96875.59;6257483;28;20239;-74
2022/02/02 11:40:08;;;;;;;5.83;1.07;;;;;;;3.60;80.28;96890.81;6276041;28;20237;-75
2022/02/02 11:43:14;;;;;;;5.00;1.03;;;;;;;3.43;82.61;96938.00;6274967;28;20231;-75
2022/02/02 11:46:46;;;;;;;3.70;1.10;;;;;;;3.20;82.78;96982.94;6275718;28;20258;-75
2022/02/02 11:50:00;;;;;;;3.80;1.30;;;;;;;2.89;82.47;96958.78;6274028;28;20229;-73
2022/02/02 11:53:03;;;;;;;1.77;0.90;;;;;;;2.58;80.37;96944.19;6274982;28;20241;-75
2022/02/02 11:56:06;;;;;;;2.60;0.70;;;;;;;2.76;80.53;96925.75;6256665;28;20326;-74
2022/02/02 12:06:25;;;;;;;0.50;0.40;;;;;;;3.47;75.87;96954.31;6276115;28;20700;-74
2022/02/02 12:09:47;;;;;;;0.67;0.50;;;;;;;3.32;75.74;97005.66;6275420;28;20232;-74
2022/02/02 12:20:53;;;;;;;0.83;0.33;;;;;;;3.21;77.40;96977.63;6274801;28;20588;-75
2022/02/02 12:50:30;;;;;;;2.90;0.60;;;;;;;4.28;70.71;97007.31;6278924;28;20227;-74
2022/02/02 12:54:32;;;;;;;2.73;0.60;;;;;;;4.18;71.43;97011.47;6279656;28;20240;-75
2022/02/02 12:57:23;;;;;;;1.80;0.40;;;;;;;4.02;71.10;97003.78;6277977;28;20247;-75
2022/02/02 13:00:36;;;;;;;0.73;0.40;;;;;;;3.89;72.41;97031.63;6281316;28;20231;-76
2022/02/02 13:03:42;;;;;;;3.23;0.70;;;;;;;3.78;74.08;97008.00;6278822;28;20258;-74
2022/02/02 13:06:44;;;;;;;0.70;0.40;;;;;;;3.65;74.22;97023.56;6270562;28;20746;-74
2022/02/02 13:09:50;;;;;;;0.70;0.40;;;;;;;3.55;72.58;97028.53;6278802;28;20230;-73
2022/02/02 13:13:07;;;;;;;0.60;0.33;;;;;;;3.65;72.05;97021.81;6279030;28;20243;-74
2022/02/02 13:16:17;;;;;;;0.77;0.50;;;;;;;4.91;68.88;97023.06;6279118;28;20240;-75
2022/02/02 13:19:26;;;;;;;1.60;0.37;;;;;;;6.04;61.50;97015.09;6278248;28;20239;-75
2022/02/02 13:22:32;;;;;;;1.23;0.50;;;;;;;7.85;57.32;97017.75;6278828;28;20256;-74
2022/02/02 13:25:35;;;;;;;1.93;0.60;;;;;;;6.95;58.24;97037.94;6277739;28;20256;-74
2022/02/02 13:35:28;;;;;;;2.73;0.57;;;;;;;8.23;56.44;97054.09;6261152;28;20230;-74
2022/02/02 13:42:18;;;;;;;3.47;0.60;;;;;;;7.88;55.84;97061.34;6278615;28;20238;-74
2022/02/02 13:42:41;;;;;;;1.43;0.70;;;;;;;5.90;61.38;97076.31;6276077;28;20642;-74
2022/02/02 13:49:15;;;;;;;3.70;0.87;;;;;;;4.64;65.85;97080.63;6279567;28;20325;-74
2022/02/02 13:53:01;;;;;;;4.00;0.67;;;;;;;4.41;67.32;97066.47;6276443;28;20230;-74
2022/02/02 13:56:45;;;;;;;3.50;0.80;;;;;;;4.34;66.81;97061.75;6276980;28;20258;-73
2022/02/02 14:32:47;;;;;;;2.57;0.60;;;;;;;3.98;67.74;97111.97;6276517;28;20228;-74
2022/02/02 14:35:53;;;;;;;3.23;0.87;;;;;;;4.03;67.55;97113.34;6277296;28;20251;-74
2022/02/02 14:42:10;;;;;;;2.30;0.73;;;;;;;4.13;68.22;97112.75;6277188;28;20238;-74
2022/02/02 14:45:15;;;;;;;1.83;0.40;;;;;;;4.08;66.83;97116.50;6276022;28;20716;-74
2022/02/02 14:48:26;;;;;;;4.50;1.43;;;;;;;4.06;66.93;97126.22;6276018;28;20230;-74
2022/02/02 15:09:06;;;;;;;3.27;0.70;;;;;;;4.13;64.17;97131.88;6276511;28;20248;-74
2022/02/02 15:28:19;;;;;;;1.80;0.50;;;;;;;4.00;64.90;97159.66;6276309;28;20237;-73
2022/02/02 15:31:21;;;;;;;1.80;0.90;;;;;;;3.98;62.96;97169.41;6276044;28;20257;-74
2022/02/02 15:34:38;;;;;;;0.57;0.50;;;;;;;3.99;62.88;97148.38;6275375;28;20263;-74
2022/02/02 15:37:55;;;;;;;1.67;0.73;;;;;;;3.96;63.44;97143.38;6275751;28;20257;-74
2022/02/02 15:41:03;;;;;;;1.80;0.90;;;;;;;3.95;62.78;97151.31;6275839;28;20251;-73
2022/02/02 16:04:14;;;;;;;3.30;0.97;;;;;;;3.91;62.96;97205.47;6275545;28;20227;-74
2022/02/02 16:07:26;;;;;;;3.17;0.83;;;;;;;3.91;62.78;97220.28;6273351;28;20240;-74
2022/02/02 16:10:42;;;;;;;3.57;0.90;;;;;;;3.94;62.71;97218.34;6277649;28;20237;-73
2022/02/02 16:13:53;;;;;;;2.87;0.70;;;;;;;3.98;61.22;97245.94;6276915;28;20367;-74
2022/02/02 16:36:51;;;;;;;3.53;0.87;;;;;;;3.55;63.21;97288.56;6276581;28;20245;-74
2022/02/02 16:39:58;;;;;;;4.53;0.80;;;;;;;3.51;63.21;97307.94;6282423;28;20235;-74
2022/02/02 16:43:14;;;;;;;2.63;0.83;;;;;;;3.62;61.81;97300.31;6276211;28;20237;-73
2022/02/02 16:46:16;;;;;;;2.63;0.83;;;;;;;3.63;62.52;97318.50;6269085;28;20238;-73
2022/02/02 16:49:19;;;;;;;3.33;0.67;;;;;;;3.63;61.42;97321.09;6281826;28;20373;-74
2022/02/02 16:52:24;;;;;;;3.50;0.63;;;;;;;3.69;60.46;97309.50;6279586;28;20452;-73
2022/02/02 16:55:45;;;;;;;3.83;1.10;;;;;;;3.70;60.97;97334.63;6279671;28;20225;-74
2022/02/02 17:39:05;;;;;;;3.13;0.90;;;;;;;3.29;63.97;97431.72;6288875;28;20261;-73
2022/02/02 17:42:50;;;;;;;2.33;0.70;;;;;;;3.21;64.71;97436.53;6288645;28;20598;-74
2022/02/02 18:03:17;;;;;;;2.93;1.00;;;;;;;3.12;65.09;97503.97;6231526;28;20248;-73
2022/02/02 18:18:59;;;;;;;4.13;0.93;;;;;;;3.14;66.99;97533.41;6279579;28;20574;-73
2022/02/02 18:22:02;;;;;;;2.67;0.90;;;;;;;3.16;67.08;97542.00;6280707;28;20240;-73
2022/02/02 18:25:12;;;;;;;5.07;1.00;;;;;;;3.14;66.82;97551.66;6279395;28;20293;-73
2022/02/02 18:28:33;;;;;;;2.37;0.90;;;;;;;3.12;67.40;97564.78;6247564;28;20231;-73
2022/02/02 18:34:58;;;;;;;3.80;1.40;;;;;;;3.09;67.24;97551.94;6282013;28;20229;-73
2022/02/02 18:48:30;;;;;;;3.03;0.80;;;;;;;2.92;67.45;97572.78;6279071;28;20234;-74
2022/02/02 18:54:53;;;;;;;2.83;1.20;;;;;;;2.95;66.98;97585.69;6260186;28;20259;-73
2022/02/02 19:01:31;;;;;;;1.30;0.73;;;;;;;2.97;66.76;97604.69;6281979;28;20260;-73
2022/02/02 19:04:54;;;;;;;3.90;0.93;;;;;;;2.98;66.60;97614.19;6284042;28;20431;-72
2022/02/02 19:56:40;;;;;;;1.97;0.90;;;;;;;2.55;66.30;97702.31;6130695;28;20246;-73
2022/02/02 20:12:07;;;;;;;5.53;1.30;;;;;;;2.42;65.23;97715.97;6212326;28;20223;-73
2022/02/02 20:15:13;;;;;;;4.03;0.90;;;;;;;2.41;65.15;97735.13;6276561;28;20209;-73
2022/02/02 20:18:16;;;;;;;4.43;1.30;;;;;;;2.36;64.57;97721.47;6280344;28;20227;-73
2022/02/02 20:21:22;;;;;;;2.77;0.97;;;;;;;2.30;64.98;97730.41;6276139;28;20290;-73
2022/02/02 20:24:33;;;;;;;3.67;1.60;;;;;;;2.22;65.29;97741.19;6278331;28;21025;-73
2022/02/02 20:27:36;;;;;;;4.67;1.13;;;;;;;2.23;64.11;97752.44;6277009;28;20223;-73
2022/02/02 20:30:39;;;;;;;2.77;1.30;;;;;;;2.30;63.35;97746.03;6257951;28;20356;-73
2022/02/02 20:33:46;;;;;;;4.33;1.40;;;;;;;2.37;63.17;97757.88;6276942;28;20231;-72
2022/02/02 20:36:49;;;;;;;2.60;0.70;;;;;;;2.35;62.89;97764.91;6276814;28;20241;-73
2022/02/02 20:40:05;;;;;;;4.17;1.00;;;;;;;2.21;64.36;97768.13;6275311;28;20231;-73
2022/02/02 20:43:11;;;;;;;3.53;0.90;;;;;;;2.05;64.35;97774.94;6275011;28;20231;-73
2022/02/02 21:03:36;;;;;;;3.30;1.27;;;;;;;2.23;64.12;97815.78;6277291;28;20242;-73
2022/02/02 21:06:29;;;;;;;2.37;0.90;;;;;;;2.35;63.91;97816.13;6275961;28;20218;-73
2022/02/02 21:13:41;;;;;;;4.47;1.10;;;;;;;2.42;63.82;97823.59;6278719;28;20563;-73
2022/02/02 21:16:15;;;;;;;2.77;1.03;;;;;;;2.50;63.76;97820.63;6248233;28;20331;-73
2022/02/02 21:19:31;;;;;;;3.00;1.10;;;;;;;2.48;63.63;97841.56;6275936;28;20246;-72
2022/02/02 21:22:36;;;;;;;2.43;0.77;;;;;;;2.55;63.53;97840.38;6261879;28;20226;-73
2022/02/02 21:25:49;;;;;;;4.17;1.30;;;;;;;2.59;63.26;97846.28;6278903;28;20231;-73
2022/02/02 21:28:51;;;;;;;3.47;1.00;;;;;;;2.62;62.86;97850.50;6282417;28;20247;-73
2022/02/02 21:31:53;;;;;;;3.90;1.17;;;;;;;2.67;63.05;97854.59;6281642;28;20240;-73
2022/02/02 21:34:57;;;;;;;4.70;1.00;;;;;;;2.70;62.84;97857.03;6279798;28;20229;-72
2022/02/02 21:38:04;;;;;;;3.90;1.10;;;;;;;2.64;63.62;97859.09;6260831;28;20241;-73
2022/02/02 21:41:06;;;;;;;7.30;1.00;;;;;;;2.58;64.23;97858.47;6279514;28;20239;-73
2022/02/02 21:44:09;;;;;;;6.33;1.03;;;;;;;2.67;63.62;97869.38;6280256;28;20608;-72
2022/02/02 21:47:12;;;;;;;4.73;1.40;;;;;;;2.68;63.06;97868.47;6280181;28;20603;-73
2022/02/02 21:50:17;;;;;;;5.63;1.07;;;;;;;2.72;62.98;97876.06;6279748;28;20233;-73
2022/02/02 21:53:19;;;;;;;2.83;0.80;;;;;;;2.71;63.10;97873.50;6262513;28;20241;-73
2022/02/02 21:56:23;;;;;;;2.93;1.00;;;;;;;2.77;62.63;97883.69;6281696;28;20231;-73
2022/02/02 21:59:25;;;;;;;5.53;1.30;;;;;;;2.79;62.71;97882.69;6279331;28;20241;-73
2022/02/02 22:02:32;;;;;;;2.23;0.90;;;;;;;2.78;62.62;97891.44;6278653;28;20679;-73
2022/02/02 22:05:36;;;;;;;3.17;1.03;;;;;;;2.77;62.65;97884.53;6279443;28;20255;-73
2022/02/02 22:08:38;;;;;;;6.67;1.43;;;;;;;2.74;63.07;97895.06;6283397;28;20240;-72
2022/02/02 22:11:40;;;;;;;3.03;0.90;;;;;;;2.69;63.40;97889.25;6268991;28;20242;-73
2022/02/02 22:14:46;;;;;;;3.80;0.90;;;;;;;2.67;63.56;97895.44;6261446;28;20243;-73
2022/02/02 22:17:48;;;;;;;3.63;1.23;;;;;;;2.59;64.34;97890.56;6279974;28;20232;-73
2022/02/02 22:20:51;;;;;;;4.97;1.20;;;;;;;2.59;64.40;97896.63;6281314;28;20292;-73
2022/02/02 22:23:53;;;;;;;4.50;1.03;;;;;;;2.64;63.71;97891.19;6281148;28;20304;-73
2022/02/02 22:26:55;;;;;;;2.40;1.00;;;;;;;2.72;63.71;97883.03;6267050;28;20336;-73
2022/02/02 22:29:57;;;;;;;5.17;1.47;;;;;;;2.72;64.66;97893.44;6285898;28;20235;-73
2022/02/02 22:32:59;;;;;;;6.90;1.33;;;;;;;2.71;64.45;97884.78;6282248;28;20239;-73
2022/02/02 22:36:02;;;;;;;5.10;1.20;;;;;;;2.71;64.39;97884.78;6279705;28;20239;-73
2022/02/02 22:39:06;;;;;;;4.27;1.07;;;;;;;2.75;63.77;97890.72;6284996;28;20236;-73
2022/02/02 22:42:10;;;;;;;5.40;1.07;;;;;;;2.74;64.38;97905.50;6281073;28;20222;-72
2022/02/02 22:45:13;;;;;;;2.57;1.17;;;;;;;2.77;64.08;97888.88;6280732;28;20232;-73
2022/02/02 22:48:16;;;;;;;2.83;1.07;;;;;;;2.80;64.17;97886.97;6280136;28;20217;-73
2022/02/02 22:51:19;;;;;;;5.50;1.40;;;;;;;2.78;64.40;97877.56;6263907;28;20224;-72
2022/02/02 22:54:21;;;;;;;3.57;0.80;;;;;;;2.76;64.63;97887.19;6279418;28;20235;-72
2022/02/02 22:57:23;;;;;;;4.30;0.93;;;;;;;2.76;64.66;97887.19;6260722;28;20228;-73
2022/02/02 23:00:36;;;;;;;2.93;1.03;;;;;;;2.75;64.76;97886.34;6259275;28;20237;-72
2022/02/02 23:03:38;;;;;;;4.23;1.37;;;;;;;2.72;64.95;97885.63;6276473;28;20277;-72
2022/02/02 23:06:40;;;;;;;2.67;0.70;;;;;;;2.73;64.49;97882.97;6276538;28;20224;-72
2022/02/02 23:09:45;;;;;;;3.27;1.53;;;;;;;2.70;64.63;97887.47;6276360;28;20237;-72
2022/02/02 23:12:47;;;;;;;3.07;1.00;;;;;;;2.66;64.32;97893.75;6275392;28;20236;-73
2022/02/02 23:18:52;;;;;;;1.83;0.80;;;;;;;2.61;64.43;97912.16;6275756;28;20231;-73
2022/02/02 23:21:55;;;;;;;3.93;1.20;;;;;;;2.61;64.58;97904.34;6241014;28;20226;-73
2022/02/02 23:25:04;;;;;;;3.53;0.90;;;;;;;2.58;64.89;97901.91;6275286;28;20231;-72
2022/02/02 23:28:06;;;;;;;2.50;0.80;;;;;;;2.58;64.94;97905.34;6276939;28;20236;-72
2022/02/02 23:31:11;;;;;;;3.90;0.83;;;;;;;2.55;65.14;97915.91;6275125;28;20239;-72
2022/02/02 23:34:14;;;;;;;3.53;0.83;;;;;;;2.54;65.09;97923.78;6276323;28;20292;-72
2022/02/02 23:37:16;;;;;;;3.50;0.67;;;;;;;2.54;65.07;97927.25;6259201;28;20233;-72
2022/02/02 23:40:19;;;;;;;1.37;0.60;;;;;;;2.53;65.47;97935.13;6275512;28;20241;-72
2022/02/02 23:43:23;;;;;;;3.57;0.93;;;;;;;2.50;65.60;97936.09;6258694;28;20222;-72
2022/02/02 23:46:28;;;;;;;2.57;0.73;;;;;;;2.45;65.82;97932.00;6275193;28;20232;-72
2022/02/02 23:49:39;;;;;;;2.00;0.83;;;;;;;2.44;66.39;97927.72;6275173;28;20237;-73
2022/02/02 23:52:48;;;;;;;2.60;0.90;;;;;;;2.48;65.72;97945.75;6257354;28;20236;-72
2022/02/02 23:55:58;;;;;;;3.70;0.90;;;;;;;2.56;65.58;97961.03;6275742;28;20304;-72
2022/02/02 23:59:06;;;;;;;1.77;0.90;;;;;;;2.63;65.14;97959.00;6275823;28;20261;-72
